createdAt,value
2022-10-11T00:01:00.532Z,5.71
2022-10-11T00:03:35.958Z,5.71
2022-10-11T00:06:06.343Z,5.69
2022-10-11T00:08:35.790Z,5.66
2022-10-11T00:11:07.266Z,5.63
2022-10-11T00:13:35.930Z,5.63
2022-10-11T00:16:10.503Z,5.64
2022-10-11T00:18:39.705Z,5.65
2022-10-11T00:21:12.066Z,5.68
2022-10-11T00:23:40.473Z,5.68
2022-10-11T00:26:11.230Z,5.68
2022-10-11T00:28:40.738Z,5.68
2022-10-11T00:31:16.091Z,5.68
2022-10-11T00:33:44.382Z,5.67
2022-10-11T00:36:14.976Z,5.66
2022-10-11T00:38:45.115Z,5.64
2022-10-11T00:41:14.839Z,5.64
2022-10-11T00:43:44.344Z,5.63
2022-10-11T00:46:18.466Z,5.63
2022-10-11T00:48:51.014Z,5.63
2022-10-11T00:51:53.583Z,5.65
2022-10-11T00:54:25.682Z,5.66
2022-10-11T00:56:59.284Z,5.68
2022-10-11T00:59:34.926Z,5.72
2022-10-11T01:02:05.201Z,5.74
2022-10-11T01:04:34.740Z,5.76
2022-10-11T01:07:03.070Z,5.79
2022-10-11T01:09:31.917Z,5.80
2022-10-11T01:12:05.311Z,5.81
2022-10-11T01:14:58.890Z,5.81
2022-10-11T01:18:18.230Z,5.81
2022-10-11T01:20:52.966Z,5.82
2022-10-11T01:23:58.273Z,5.84
2022-10-11T01:26:26.445Z,5.89
2022-10-11T01:29:42.369Z,5.91
2022-10-11T01:32:25.190Z,5.94
2022-10-11T01:35:06.794Z,5.97
2022-10-11T01:37:41.290Z,6.02
2022-10-11T01:40:17.270Z,6.05
2022-10-11T01:42:46.922Z,6.08
2022-10-11T01:45:18.835Z,6.10
2022-10-11T01:47:47.710Z,6.11
2022-10-11T01:50:37.929Z,6.12
2022-10-11T01:53:25.746Z,6.12
2022-10-11T01:56:06.709Z,6.12
2022-10-11T01:59:01.585Z,6.12
2022-10-11T02:01:48.842Z,6.12
2022-10-11T02:04:29.103Z,6.10
2022-10-11T02:07:30.762Z,6.09
2022-10-11T02:10:08.169Z,6.06
2022-10-11T02:12:48.914Z,6.05
2022-10-11T02:15:19.335Z,6.02
2022-10-11T02:17:56.632Z,6.01
2022-10-11T02:20:28.167Z,6.01
2022-10-11T02:23:27.506Z,6.00
2022-10-11T02:25:57.911Z,5.99
2022-10-11T02:28:31.693Z,5.96
2022-10-11T02:31:02.679Z,5.95
2022-10-11T02:33:42.091Z,5.93
2022-10-11T02:36:17.487Z,5.90
2022-10-11T02:38:50.869Z,5.86
2022-10-11T02:41:31.385Z,5.83
2022-10-11T02:44:07.165Z,5.80
2022-10-11T02:46:37.758Z,5.78
2022-10-11T02:49:08.809Z,5.77
2022-10-11T02:51:37.091Z,5.75
2022-10-11T02:54:05.533Z,5.74
2022-10-11T02:56:33.778Z,5.72
2022-10-11T02:59:01.915Z,5.71
2022-10-11T03:01:30.213Z,5.70
2022-10-11T03:03:58.529Z,5.69
2022-10-11T03:06:26.699Z,5.66
2022-10-11T03:08:54.837Z,5.64
2022-10-11T03:11:23.446Z,5.63
2022-10-11T03:13:51.921Z,5.62
2022-10-11T03:16:20.136Z,5.62
2022-10-11T03:18:48.438Z,5.62
2022-10-11T03:21:17.097Z,5.63
2022-10-11T03:23:45.345Z,5.62
2022-10-11T03:26:13.658Z,5.63
2022-10-11T03:28:42.422Z,5.62
2022-10-11T03:31:10.664Z,5.60
2022-10-11T03:33:38.936Z,5.58
2022-10-11T03:36:09.265Z,5.57
2022-10-11T03:38:37.753Z,5.57
2022-10-11T03:41:06.249Z,5.58
2022-10-11T03:43:34.475Z,5.58
2022-10-11T03:46:03.151Z,5.59
2022-10-11T03:48:31.746Z,5.61
2022-10-11T03:51:00.032Z,5.62
2022-10-11T03:53:28.274Z,5.64
2022-10-11T03:55:56.559Z,5.65
2022-10-11T03:58:24.846Z,5.68
2022-10-11T04:00:53.631Z,5.70
2022-10-11T04:03:21.839Z,5.74
2022-10-11T04:05:50.003Z,5.76
2022-10-11T04:08:18.669Z,5.79
2022-10-11T04:10:48.634Z,5.82
2022-10-11T04:13:17.594Z,5.85
2022-10-11T04:15:46.882Z,5.88
2022-10-11T04:18:15.290Z,5.91
2022-10-11T04:20:43.472Z,5.94
2022-10-11T04:23:11.626Z,5.96
2022-10-11T04:25:40.161Z,5.98
2022-10-11T04:28:09.537Z,6.00
2022-10-11T04:30:37.906Z,6.01
2022-10-11T04:33:06.216Z,6.03
2022-10-11T04:35:34.473Z,6.05
2022-10-11T04:38:02.851Z,6.06
2022-10-11T04:40:31.170Z,6.08
2022-10-11T04:42:59.412Z,6.09
2022-10-11T04:45:27.641Z,6.11
2022-10-11T04:47:56.386Z,6.14
2022-10-11T04:50:24.590Z,6.17
2022-10-11T04:52:58.811Z,6.20
2022-10-11T04:55:27.162Z,6.24
2022-10-11T04:57:55.831Z,6.27
2022-10-11T05:00:24.137Z,6.30
2022-10-11T05:02:53.185Z,6.35
2022-10-11T05:05:21.330Z,6.40
2022-10-11T05:07:49.627Z,6.43
2022-10-11T05:10:17.913Z,6.47
2022-10-11T05:12:46.166Z,6.51
2022-10-11T05:15:14.430Z,6.56
2022-10-11T05:17:42.550Z,6.63
2022-10-11T05:20:11.086Z,6.69
2022-10-11T05:22:39.267Z,6.76
2022-10-11T05:25:07.809Z,6.82
2022-10-11T05:27:36.011Z,6.90
2022-10-11T05:30:05.101Z,6.98
2022-10-11T05:32:33.722Z,7.05
2022-10-11T05:35:01.925Z,7.13
2022-10-11T05:37:30.286Z,7.19
2022-10-11T05:39:58.381Z,7.25
2022-10-11T05:42:27.004Z,7.32
2022-10-11T05:44:55.380Z,7.39
2022-10-11T05:47:23.648Z,7.46
2022-10-11T05:49:51.816Z,7.52
2022-10-11T05:52:21.795Z,7.58
2022-10-11T05:54:50.092Z,7.63
2022-10-11T05:57:18.407Z,7.67
2022-10-11T05:59:46.682Z,7.71
2022-10-11T06:02:14.824Z,7.76
2022-10-11T06:04:43.113Z,7.81
2022-10-11T06:07:11.389Z,7.87
2022-10-11T06:09:40.031Z,7.92
2022-10-11T06:12:08.287Z,7.99
2022-10-11T06:14:36.589Z,8.05
2022-10-11T06:17:04.813Z,8.13
2022-10-11T06:19:33.128Z,8.21
2022-10-11T06:22:01.394Z,8.30
2022-10-11T06:24:29.778Z,8.39
2022-10-11T06:26:58.015Z,8.50
2022-10-11T06:29:26.331Z,8.61
2022-10-11T06:31:54.589Z,8.71
2022-10-11T06:34:22.868Z,8.80
2022-10-11T06:36:51.210Z,8.88
2022-10-11T06:39:19.953Z,8.93
2022-10-11T06:41:48.180Z,8.98
2022-10-11T06:44:17.117Z,9.03
2022-10-11T06:46:45.491Z,9.09
2022-10-11T06:49:13.749Z,9.15
2022-10-11T06:51:41.970Z,9.23
2022-10-11T06:54:10.260Z,9.31
2022-10-11T06:56:39.315Z,9.40
2022-10-11T06:59:07.642Z,9.51
2022-10-11T07:01:35.882Z,9.61
2022-10-11T07:04:04.218Z,9.74
2022-10-11T07:06:32.531Z,9.88
2022-10-11T07:09:01.019Z,10.04
2022-10-11T07:11:29.351Z,10.19
2022-10-11T07:14:00.674Z,10.33
2022-10-11T07:16:29.188Z,10.45
2022-10-11T07:19:01.453Z,10.56
2022-10-11T07:21:31.698Z,10.67
2022-10-11T07:24:01.230Z,10.76
2022-10-11T07:26:36.855Z,10.85
2022-10-11T07:29:09.163Z,10.94
2022-10-11T07:31:40.546Z,11.01
2022-10-11T07:34:10.257Z,11.09
2022-10-11T07:36:38.707Z,11.15
2022-10-11T07:39:09.004Z,11.20
2022-10-11T07:41:44.680Z,11.25
2022-10-11T07:44:14.934Z,11.30
2022-10-11T07:46:43.239Z,11.36
2022-10-11T07:49:11.468Z,11.43
2022-10-11T07:51:39.623Z,11.52
2022-10-11T07:54:08.274Z,11.62
2022-10-11T07:56:38.190Z,11.74
2022-10-11T07:59:08.301Z,11.86
2022-10-11T08:01:36.637Z,11.97
2022-10-11T08:04:05.160Z,12.05
2022-10-11T08:06:33.440Z,12.12
2022-10-11T08:09:02.306Z,12.17
2022-10-11T08:11:36.470Z,12.21
2022-10-11T08:14:08.988Z,12.26
2022-10-11T08:16:39.200Z,12.30
2022-10-11T08:19:07.550Z,12.33
2022-10-11T08:21:36.415Z,12.35
2022-10-11T08:24:06.307Z,12.36
2022-10-11T08:26:35.295Z,12.39
2022-10-11T08:29:04.292Z,12.44
2022-10-11T08:31:34.709Z,12.51
2022-10-11T08:34:03.226Z,12.60
2022-10-11T08:36:31.531Z,12.71
2022-10-11T08:39:00.877Z,12.86
2022-10-11T08:41:38.270Z,13.04
2022-10-11T08:45:05.392Z,13.22
2022-10-11T08:47:31.333Z,13.36
2022-10-11T08:50:00.966Z,13.44
2022-10-11T08:52:53.851Z,13.48
2022-10-11T08:55:45.203Z,13.53
2022-10-11T08:58:17.693Z,13.56
2022-10-11T09:00:48.585Z,13.60
2022-10-11T09:03:38.877Z,13.67
2022-10-11T09:06:16.358Z,13.79
2022-10-11T09:09:05.817Z,13.91
2022-10-11T09:11:47.563Z,14.01
2022-10-11T09:14:54.197Z,14.08
2022-10-11T09:17:41.531Z,14.11
2022-10-11T09:20:53.165Z,14.10
2022-10-11T09:23:33.201Z,14.09
2022-10-11T09:26:19.014Z,14.11
2022-10-11T09:28:51.273Z,14.11
2022-10-11T09:31:19.634Z,14.09
2022-10-11T09:33:49.850Z,14.10
2022-10-11T09:36:44.333Z,14.12
2022-10-11T09:39:35.609Z,14.15
2022-10-11T09:42:09.379Z,14.17
2022-10-11T09:44:41.409Z,14.22
2022-10-11T09:47:15.695Z,14.27
2022-10-11T09:50:03.835Z,14.28
2022-10-11T09:52:33.218Z,14.25
2022-10-11T09:55:02.758Z,14.21
2022-10-11T09:57:37.792Z,14.17
2022-10-11T10:00:08.669Z,14.12
2022-10-11T10:02:45.148Z,14.10
2022-10-11T10:05:17.621Z,14.06
2022-10-11T10:08:08.552Z,14.04
2022-10-11T10:11:00.394Z,14.01
2022-10-11T10:13:43.545Z,13.95
2022-10-11T10:16:27.964Z,13.87
2022-10-11T10:19:17.557Z,13.82
2022-10-11T10:21:49.794Z,13.81
2022-10-11T10:24:31.868Z,13.81
2022-10-11T10:27:18.587Z,13.81
2022-10-11T10:30:09.922Z,13.80
2022-10-11T10:33:00.766Z,13.82
2022-10-11T10:35:41.657Z,13.83
2022-10-11T10:38:24.125Z,13.84
2022-10-11T10:41:04.414Z,13.90
2022-10-11T10:43:38.770Z,13.98
2022-10-11T10:46:20.614Z,14.05
2022-10-11T10:49:34.570Z,14.12
2022-10-11T10:52:05.574Z,14.20
2022-10-11T10:54:59.985Z,14.28
2022-10-11T10:57:46.847Z,14.40
2022-10-11T11:00:21.675Z,14.52
2022-10-11T11:03:06.237Z,14.64
2022-10-11T11:06:05.405Z,14.77
2022-10-11T11:08:46.922Z,14.90
2022-10-11T11:11:40.226Z,15.02
2022-10-11T11:14:29.853Z,15.17
2022-10-11T11:17:37.039Z,15.29
2022-10-11T11:20:20.574Z,15.34
2022-10-11T11:23:01.342Z,15.36
2022-10-11T11:25:54.944Z,15.38
2022-10-11T11:28:32.279Z,15.41
2022-10-11T11:31:31.808Z,15.49
2022-10-11T11:34:19.083Z,15.60
2022-10-11T11:37:00.973Z,15.70
2022-10-11T11:40:22.322Z,15.81
2022-10-11T11:42:56.006Z,15.90
2022-10-11T11:45:31.655Z,15.95
2022-10-11T11:48:05.744Z,16.04
2022-10-11T11:50:47.093Z,16.12
2022-10-11T11:54:06.361Z,16.23
2022-10-11T11:56:53.053Z,16.48
2022-10-11T11:59:53.402Z,16.64
2022-10-11T12:02:22.420Z,16.80
2022-10-11T12:04:52.326Z,16.95
2022-10-11T12:07:23.965Z,17.16
2022-10-11T12:09:55.326Z,17.30
2022-10-11T12:12:36.365Z,17.44
2022-10-11T12:15:26.259Z,17.56
2022-10-11T12:17:57.606Z,17.65
2022-10-11T12:20:31.636Z,17.78
2022-10-11T12:23:20.176Z,17.96
2022-10-11T12:26:27.388Z,18.08
2022-10-11T12:29:18.371Z,17.99
2022-10-11T12:32:06.834Z,17.93
2022-10-11T12:34:36.804Z,17.95
2022-10-11T12:37:20.386Z,18.03
2022-10-11T12:39:56.213Z,18.19
2022-10-11T12:42:29.318Z,18.19
2022-10-11T12:45:15.758Z,18.12
2022-10-11T12:47:43.978Z,18.07
2022-10-11T12:50:12.137Z,18.09
2022-10-11T12:52:58.370Z,18.24
2022-10-11T12:55:46.549Z,18.34
2022-10-11T12:58:29.990Z,18.31
2022-10-11T13:00:59.368Z,18.27
2022-10-11T13:03:40.027Z,18.22
2022-10-11T13:06:27.226Z,18.10
2022-10-11T13:09:07.333Z,17.98
2022-10-11T13:12:06.957Z,17.91
2022-10-11T13:14:41.810Z,17.81
2022-10-11T13:17:37.980Z,17.71
2022-10-11T13:20:18.069Z,17.64
2022-10-11T13:22:49.899Z,17.49
2022-10-11T13:25:21.636Z,17.38
2022-10-11T13:27:53.490Z,17.27
2022-10-11T13:30:31.775Z,17.16
2022-10-11T13:33:03.039Z,17.02
2022-10-11T13:35:34.941Z,16.89
2022-10-11T13:38:08.375Z,16.76
2022-10-11T13:40:37.962Z,16.62
2022-10-11T13:43:06.450Z,16.48
2022-10-11T13:45:37.310Z,16.39
2022-10-11T13:48:15.102Z,16.32
2022-10-11T13:50:51.362Z,16.28
2022-10-11T13:53:23.060Z,16.22
2022-10-11T13:55:54.784Z,16.17
2022-10-11T13:58:45.373Z,16.11
2022-10-11T14:01:17.198Z,16.01
2022-10-11T14:04:07.947Z,15.90
2022-10-11T14:06:48.161Z,15.81
2022-10-11T14:09:29.492Z,15.77
2022-10-11T14:12:29.821Z,15.74
2022-10-11T14:15:00.822Z,15.70
2022-10-11T14:17:45.115Z,15.62
2022-10-11T14:20:33.775Z,15.55
2022-10-11T14:23:02.247Z,15.51
2022-10-11T14:25:30.782Z,15.45
2022-10-11T14:27:59.465Z,15.44
2022-10-11T14:30:31.677Z,15.40
2022-10-11T14:33:02.911Z,15.37
2022-10-11T14:35:34.891Z,15.33
2022-10-11T14:38:03.154Z,15.27
2022-10-11T14:40:32.043Z,15.23
2022-10-11T14:43:00.253Z,15.20
2022-10-11T14:45:29.317Z,15.17
2022-10-11T14:47:57.627Z,15.13
2022-10-11T14:50:39.477Z,15.04
2022-10-11T14:53:12.393Z,14.96
2022-10-11T14:55:42.245Z,14.88
2022-10-11T14:58:14.991Z,14.79
2022-10-11T15:00:44.689Z,14.67
2022-10-11T15:03:14.358Z,14.57
2022-10-11T15:05:42.543Z,14.48
2022-10-11T15:08:12.346Z,14.41
2022-10-11T15:10:41.715Z,14.33
2022-10-11T15:13:10.459Z,14.29
2022-10-11T15:15:41.696Z,14.25
2022-10-11T15:18:16.831Z,14.21
2022-10-11T15:20:46.705Z,14.17
2022-10-11T15:23:15.335Z,14.13
2022-10-11T15:25:43.588Z,14.08
2022-10-11T15:28:31.867Z,14.02
2022-10-11T15:31:00.789Z,13.93
2022-10-11T15:33:29.050Z,13.84
2022-10-11T15:35:57.328Z,13.73
2022-10-11T15:38:26.177Z,13.65
2022-10-11T15:40:55.005Z,13.54
2022-10-11T15:43:25.072Z,13.40
2022-10-11T15:45:55.809Z,13.27
2022-10-11T15:48:26.721Z,13.16
2022-10-11T15:50:55.693Z,13.05
2022-10-11T15:53:31.470Z,12.95
2022-10-11T15:56:09.472Z,12.86
2022-10-11T15:58:41.869Z,12.77
2022-10-11T16:01:15.785Z,12.69
2022-10-11T16:03:45.152Z,12.63
2022-10-11T16:06:13.699Z,12.58
2022-10-11T16:08:42.330Z,12.53
2022-10-11T16:11:12.218Z,12.48
2022-10-11T16:13:40.604Z,12.43
2022-10-11T16:16:10.092Z,12.39
2022-10-11T16:18:39.011Z,12.33
2022-10-11T16:21:10.677Z,12.27
2022-10-11T16:23:39.291Z,12.20
2022-10-11T16:26:10.489Z,12.14
2022-10-11T16:28:39.465Z,12.09
2022-10-11T16:31:14.418Z,12.05
2022-10-11T16:33:46.116Z,12.01
2022-10-11T16:36:32.664Z,11.96
2022-10-11T16:39:20.333Z,11.89
2022-10-11T16:41:48.582Z,11.83
2022-10-11T16:44:19.574Z,11.75
2022-10-11T16:46:49.140Z,11.66
2022-10-11T16:49:22.748Z,11.58
2022-10-11T16:51:53.899Z,11.49
2022-10-11T16:54:22.999Z,11.39
2022-10-11T16:56:51.350Z,11.29
2022-10-11T16:59:20.237Z,11.21
2022-10-11T17:01:49.135Z,11.13
2022-10-11T17:04:17.289Z,11.06
2022-10-11T17:06:45.487Z,10.98
2022-10-11T17:09:14.763Z,10.90
2022-10-11T17:11:43.677Z,10.83
2022-10-11T17:14:13.907Z,10.75
2022-10-11T17:16:42.607Z,10.67
2022-10-11T17:19:13.347Z,10.58
2022-10-11T17:21:42.130Z,10.50
2022-10-11T17:24:10.446Z,10.42
2022-10-11T17:26:38.683Z,10.33
2022-10-11T17:29:06.809Z,10.25
2022-10-11T17:31:36.774Z,10.18
2022-10-11T17:34:05.071Z,10.12
2022-10-11T17:36:36.428Z,10.07
2022-10-11T17:39:08.028Z,10.03
2022-10-11T17:41:36.768Z,9.99
2022-10-11T17:44:05.538Z,9.95
2022-10-11T17:46:34.440Z,9.89
2022-10-11T17:49:06.385Z,9.82
2022-10-11T17:51:36.669Z,9.76
2022-10-11T17:54:06.485Z,9.69
2022-10-11T17:56:37.877Z,9.62
2022-10-11T17:59:08.126Z,9.54
2022-10-11T18:01:36.604Z,9.47
2022-10-11T18:04:06.429Z,9.40
2022-10-11T18:06:39.472Z,9.31
2022-10-11T18:09:07.711Z,9.23
2022-10-11T18:11:35.914Z,9.12
2022-10-11T18:14:05.475Z,9.01
2022-10-11T18:16:35.424Z,8.91
2022-10-11T18:19:08.376Z,8.79
2022-10-11T18:21:37.916Z,8.70
2022-10-11T18:24:16.753Z,8.62
2022-10-11T18:26:46.363Z,8.56
2022-10-11T18:29:15.225Z,8.48
2022-10-11T18:31:43.541Z,8.41
2022-10-11T18:34:15.037Z,8.35
2022-10-11T18:36:43.286Z,8.28
2022-10-11T18:39:15.201Z,8.20
2022-10-11T18:41:45.611Z,8.14
2022-10-11T18:44:15.769Z,8.08
2022-10-11T18:46:44.379Z,8.00
2022-10-11T18:49:13.818Z,7.95
2022-10-11T18:51:43.262Z,7.88
2022-10-11T18:54:15.449Z,7.81
2022-10-11T18:56:47.039Z,7.77
2022-10-11T18:59:15.726Z,7.75
2022-10-11T19:01:45.359Z,7.75
2022-10-11T19:04:18.354Z,7.77
2022-10-11T19:06:48.734Z,7.77
2022-10-11T19:09:26.231Z,7.75
2022-10-11T19:11:56.565Z,7.72
2022-10-11T19:14:28.835Z,7.67
2022-10-11T19:16:57.870Z,7.65
2022-10-11T19:19:28.862Z,7.59
2022-10-11T19:21:57.269Z,7.54
2022-10-11T19:24:27.785Z,7.50
2022-10-11T19:27:02.043Z,7.47
2022-10-11T19:29:32.509Z,7.44
2022-10-11T19:32:03.773Z,7.38
2022-10-11T19:34:32.911Z,7.35
2022-10-11T19:37:01.350Z,7.31
2022-10-11T19:39:30.059Z,7.29
2022-10-11T19:41:58.301Z,7.27
2022-10-11T19:44:27.310Z,7.26
2022-10-11T19:46:55.500Z,7.23
2022-10-11T19:49:25.967Z,7.19
2022-10-11T19:51:55.710Z,7.18
2022-10-11T19:54:24.367Z,7.16
2022-10-11T19:56:52.777Z,7.18
2022-10-11T19:59:21.333Z,7.21
2022-10-11T20:01:52.813Z,7.25
2022-10-11T20:04:50.487Z,7.28
2022-10-11T20:07:10.635Z,7.27
2022-10-11T20:09:38.931Z,7.28
2022-10-11T20:12:07.429Z,7.31
2022-10-11T20:14:35.620Z,7.34
2022-10-11T20:17:03.866Z,7.36
2022-10-11T20:19:32.245Z,7.38
2022-10-11T20:22:01.568Z,7.42
2022-10-11T20:24:33.706Z,7.47
2022-10-11T20:27:04.977Z,7.54
2022-10-11T20:29:33.581Z,7.62
2022-10-11T20:32:01.814Z,7.66
2022-10-11T20:34:30.775Z,7.67
2022-10-11T20:36:59.709Z,7.69
2022-10-11T20:39:27.951Z,7.72
2022-10-11T20:41:56.136Z,7.76
2022-10-11T20:44:24.372Z,7.80
2022-10-11T20:46:52.534Z,7.83
2022-10-11T20:49:20.803Z,7.81
2022-10-11T20:51:49.211Z,7.83
2022-10-11T20:54:17.819Z,7.85
2022-10-11T20:56:46.234Z,7.86
2022-10-11T20:59:14.421Z,7.82
2022-10-11T21:01:43.016Z,7.80
2022-10-11T21:04:18.883Z,7.81
2022-10-11T21:06:48.880Z,7.81
2022-10-11T21:09:17.570Z,7.80
2022-10-11T21:11:46.375Z,7.78
2022-10-11T21:14:15.070Z,7.77
2022-10-11T21:16:43.918Z,7.75
2022-10-11T21:19:16.350Z,7.72
2022-10-11T21:21:53.316Z,7.65
2022-10-11T21:24:22.278Z,7.54
2022-10-11T21:26:50.634Z,7.44
2022-10-11T21:29:19.022Z,7.39
2022-10-11T21:31:47.172Z,7.35
2022-10-11T21:34:15.667Z,7.31
2022-10-11T21:36:43.925Z,7.25
2022-10-11T21:39:12.174Z,7.16
2022-10-11T21:41:42.442Z,7.10
2022-10-11T21:44:10.697Z,7.05
2022-10-11T21:49:27.201Z,6.95
2022-10-11T21:51:56.515Z,6.92
2022-10-11T21:54:24.681Z,6.90
2022-10-11T21:56:52.960Z,6.89
2022-10-11T21:59:21.138Z,6.86
2022-10-11T22:01:49.396Z,6.80
2022-10-11T22:04:17.708Z,6.78
2022-10-11T22:06:45.901Z,6.77
2022-10-11T22:09:14.169Z,6.76
2022-10-11T22:11:42.396Z,6.69
2022-10-11T22:14:10.590Z,6.61
2022-10-11T22:16:39.386Z,6.51
2022-10-11T22:19:07.747Z,6.47
2022-10-11T22:21:35.900Z,6.42
2022-10-11T22:24:04.377Z,6.39
2022-10-11T22:26:35.022Z,6.35
2022-10-11T22:29:03.273Z,6.25
2022-10-11T22:31:31.457Z,6.18
2022-10-11T22:34:01.518Z,6.13
2022-10-11T22:36:33.946Z,6.09
2022-10-11T22:39:08.012Z,6.02
2022-10-11T22:41:36.794Z,5.98
2022-10-11T22:44:05.078Z,5.92
2022-10-11T22:46:33.354Z,5.84
2022-10-11T22:49:01.610Z,5.77
2022-10-11T22:51:29.837Z,5.74
2022-10-11T22:53:58.241Z,5.68
2022-10-11T22:56:26.437Z,5.63
2022-10-11T22:58:54.630Z,5.61
2022-10-11T23:01:22.745Z,5.57
2022-10-11T23:03:50.957Z,5.51
2022-10-11T23:06:19.251Z,5.45
2022-10-11T23:08:47.502Z,5.39
2022-10-11T23:11:15.658Z,5.36
2022-10-11T23:13:43.972Z,5.32
2022-10-11T23:16:13.873Z,5.25
2022-10-11T23:18:42.346Z,5.18
2022-10-11T23:21:10.878Z,5.13
2022-10-11T23:23:39.955Z,5.05
2022-10-11T23:26:12.721Z,4.96
2022-10-11T23:28:42.507Z,4.90
2022-10-11T23:31:16.800Z,4.85
2022-10-11T23:33:46.519Z,4.80
2022-10-11T23:36:28.211Z,4.78
2022-10-11T23:38:58.744Z,4.76
2022-10-11T23:41:29.523Z,4.73
2022-10-11T23:43:58.988Z,4.68
2022-10-11T23:46:27.333Z,4.60
2022-10-11T23:48:55.685Z,4.57
2022-10-11T23:51:23.992Z,4.54
2022-10-11T23:53:52.187Z,4.49
2022-10-11T23:56:20.459Z,4.47
2022-10-11T23:58:48.738Z,4.45
